Victoria, Illinois
Current Conditions -  °F | °C
As of 3:15 AM on Monday 20 Oct 2014 (Local Time) from KGBG Reporting Station
Clear Clear  
Wind Chill: 47°   Ceiling: Unl
Heat Index: 49°   Visibility: 10mi
Dew Point: 45°   Wind: 5mph
Humidity: 86%   Direction: 220°SW
Pressure: 29.88"   Gusts: NA
Location:  41.03°N, 90.1°W
Report Text: KGBG 200815Z AUTO 22004KT 10SM CLR 10/07 A2988 RMK AO2 T00950072
Loading
Personal Weather Stations






























Interactive Weather Map
Tropical Storm Tracking
New forecast layout! Learn more

10-Day Weather Forecast

Advertisements
Track Severe Weather on mobile